Polaris — JD2797 — position and weather

sailwx.info

Track history (hours):
 
Tides and Currents Weather Stations Pressure Air Temp Water Temp Dewpoint Dewpoint Depression Visibility Wind Speed Wind Dir Waves Ship Positions

Polaris

Last reported at 2017-May-28 22:18 UTC. Time now 2017-May-29 09:47 UTC.
Position N 35°27' E 139°40'.

Length 30 m; draft 2.6 m.

Type: Pilot. MMSI: 431000764.

Date/timePositionNaut miles runAvg speedWind from/ knotsBaromVisibWave heightAir tempDewpointWater temp
2017-May-28 22:18N 35°27' E 139°40'2 6.6
2017-May-28 22:01N 35°27' E 139°42'5 9.0
2017-May-28 21:30N 35°24' E 139°46'611.0
2017-May-28 21:00N 35°18' E 139°45'611.5
2017-May-28 20:30N 35°13' E 139°47'3 5.4
2017-May-28 20:00N 35°10' E 139°47'510.0
2017-May-28 19:30N 35°15' E 139°45'713.7
2017-May-28 19:00N 35°21' E 139°42'612.6
2017-May-28 18:31N 35°27' E 139°40'  
2017-May-26 12:44N 35°27' E 139°40'0 2.1
2017-May-26 12:30N 35°27' E 139°40'612.6
2017-May-26 12:01N 35°21' E 139°41'714.5
2017-May-26 11:30N 35°14' E 139°45'2 4.4
2017-May-26 11:00N 35°16' E 139°45'612.8
2017-May-26 10:30N 35°22' E 139°42'3 6.9
2017-May-26 10:00N 35°25' E 139°45'4 7.7
2017-May-26 09:30N 35°27' E 139°41'  
2017-May-24 04:11N 35°27' E 139°40'0 0.0
2017-May-24 04:00N 35°27' E 139°40'0 0.0
2017-May-24 03:30N 35°27' E 139°40'0 0.0
2017-May-24 03:00N 35°27' E 139°40'0 0.0
2017-May-24 02:30N 35°27' E 139°40'0 0.0
2017-May-24 02:00N 35°27' E 139°40'0 0.0
2017-May-24 01:30N 35°27' E 139°40'0 0.0
2017-May-24 01:00N 35°27' E 139°40'0 0.0
2017-May-24 00:30N 35°27' E 139°40'0 0.0
2017-May-24 00:00N 35°27' E 139°40'0 0.0
2017-May-23 23:30N 35°27' E 139°40'0 0.0
2017-May-23 23:00N 35°27' E 139°40'2 4.9
2017-May-23 22:31N 35°25' E 139°42'714.1
2017-May-23 21:59N 35°18' E 139°43'612.0
2017-May-23 21:30N 35°13' E 139°46'612.3
2017-May-23 21:01N 35°18' E 139°44'713.3
2017-May-23 20:31N 35°25' E 139°44'1 3.0
2017-May-23 20:00N 35°25' E 139°46'4 8.3
2017-May-23 19:30N 35°27' E 139°41'1 2.8
2017-May-23 19:00N 35°27' E 139°40'0 0.0
2017-May-23 18:30N 35°27' E 139°40'0 0.0
2017-May-23 18:00N 35°27' E 139°40'0 0.0
2017-May-23 17:30N 35°27' E 139°40'0 0.0
2017-May-23 17:00N 35°27' E 139°40'0 0.0
2017-May-23 16:30N 35°27' E 139°40'0 0.0
2017-May-23 16:00N 35°27' E 139°40'0 0.0
2017-May-23 15:30N 35°27' E 139°40'0 0.0
2017-May-23 15:00N 35°27' E 139°40'0 0.0
2017-May-23 14:00N 35°27' E 139°40'0 0.0
2017-May-23 13:30N 35°27' E 139°40'0 0.0
2017-May-23 13:00N 35°27' E 139°40'0 0.0
2017-May-23 12:30N 35°27' E 139°40'0 0.0
2017-May-23 12:00N 35°27' E 139°40'0 0.0
2017-May-23 11:30N 35°27' E 139°40'0 0.0
2017-May-23 11:00N 35°27' E 139°40'0 0.0
2017-May-23 10:30N 35°27' E 139°40'0 0.0
2017-May-23 10:00N 35°27' E 139°40'0 0.0
2017-May-23 09:30N 35°27' E 139°40'0 0.0
2017-May-23 09:00N 35°27' E 139°40'0 0.0
2017-May-23 08:30N 35°27' E 139°40'0 0.0
2017-May-23 08:00N 35°27' E 139°40'0 0.0
2017-May-23 07:30N 35°27' E 139°40'4 7.6
2017-May-23 07:01N 35°28' E 139°44'2 4.2
2017-May-23 06:30N 35°30' E 139°44'0 0.9
2017-May-23 06:00N 35°30' E 139°44'510.1
2017-May-23 05:31N 35°27' E 139°40'0 0.0
2017-May-23 05:00N 35°27' E 139°40'0 0.0
2017-May-23 04:30N 35°27' E 139°40'0 0.0
2017-May-23 04:00N 35°27' E 139°40'0 0.0
2017-May-23 03:30N 35°27' E 139°40'0 0.0
2017-May-23 03:00N 35°27' E 139°40'0 0.0
2017-May-23 02:30N 35°27' E 139°40'0 0.0
2017-May-23 02:00N 35°27' E 139°40'0 0.0
2017-May-23 01:30N 35°27' E 139°40'0 0.0
2017-May-23 01:00N 35°27' E 139°40'0 0.5
2017-May-23 00:30N 35°27' E 139°40'5 9.9
2017-May-23 00:00N 35°31' E 139°44'1 1.2
2017-May-22 23:31N 35°30' E 139°44'0 0.5
2017-May-22 23:00N 35°30' E 139°44'2 4.7
2017-May-22 22:30N 35°28' E 139°43'1 1.0
2017-May-22 22:00N 35°27' E 139°42'2 4.6
2017-May-22 21:30N 35°27' E 139°40'0 0.0
2017-May-22 21:00N 35°27' E 139°40'0 0.0
2017-May-22 20:30N 35°27' E 139°40'0 0.0
2017-May-21 02:54N 35°27' E 139°40'1 3.0
2017-May-21 02:30N 35°27' E 139°41'815.1
2017-May-21 02:00N 35°19' E 139°42'814.9
2017-May-21 01:29N 35°12' E 139°46'5 9.7
2017-May-21 01:00N 35°17' E 139°45'5 9.6
2017-May-21 00:30N 35°21' E 139°42'5 9.2
2017-May-21 00:00N 35°25' E 139°45'4 7.8
2017-May-20 23:29N 35°24' E 139°49'2 3.7
2017-May-20 23:00N 35°23' E 139°51'1 1.1
2017-May-20 22:23N 35°22' E 139°52'4 9.7
2017-May-20 22:00N 35°24' E 139°48'713.5
2017-May-20 21:31N 35°27' E 139°41'1 2.6
2017-May-20 21:00N 35°27' E 139°39'1 1.4
2017-May-20 20:30N 35°27' E 139°40'0 0.0
2017-May-20 20:00N 35°27' E 139°40'0 0.0
2017-May-20 19:30N 35°27' E 139°40'0 0.0
2017-May-20 19:00N 35°27' E 139°40'0 0.0
2017-May-20 18:30N 35°27' E 139°40'0 0.0
2017-May-20 18:00N 35°27' E 139°40'0 0.0
2017-May-20 17:30N 35°27' E 139°40'0 0.0
2017-May-20 17:00N 35°27' E 139°40'0 0.0
2017-May-20 16:30N 35°27' E 139°40'0 0.0
2017-May-20 16:00N 35°27' E 139°40'0 0.0
2017-May-20 15:30N 35°27' E 139°40'0 0.0
2017-May-20 15:00N 35°27' E 139°40'0 0.0
2017-May-20 14:00N 35°27' E 139°40'0 0.0
2017-May-20 13:30N 35°27' E 139°40'0 0.0
2017-May-20 13:00N 35°27' E 139°40'0 0.0
2017-May-20 12:30N 35°27' E 139°40'0 0.0
2017-May-20 12:00N 35°27' E 139°40'0 0.0
2017-May-20 11:30N 35°27' E 139°40'0 0.0
2017-May-20 11:00N 35°27' E 139°40'0 0.0
2017-May-20 10:30N 35°27' E 139°40'0 0.0
2017-May-20 10:00N 35°27' E 139°40'0 0.0
2017-May-20 09:30N 35°27' E 139°40'0 0.0
2017-May-20 09:00N 35°27' E 139°40'0 0.0
2017-May-20 08:30N 35°27' E 139°40'1 2.8
2017-May-20 08:01N 35°27' E 139°41'510.2
2017-May-20 07:31N 35°23' E 139°46'611.0
2017-May-20 06:59N 35°17' E 139°45'3 2.4
2017-May-20 05:46N 35°14' E 139°46'413.9
2017-May-20 05:30N 35°18' E 139°44'713.5
2017-May-20 05:00N 35°24' E 139°42'  
Track history (hours):
 
Tides and Currents Weather Stations Pressure Air Temp Water Temp Dewpoint Dewpoint Depression Visibility Wind Speed Wind Dir Waves Ship Positions

Polaris

Last reported at 2017-May-28 22:18 UTC. Time now 2017-May-29 09:47 UTC.
Position N 35°27' E 139°40'.

Length 30 m; draft 2.6 m.

Type: Pilot. MMSI: 431000764.

Date/timePositionNaut miles runAvg speedWind from/ knotsBaromVisibWave heightAir tempDewpointWater temp
2017-May-28 22:18N 35°27' E 139°40'2 6.6
2017-May-28 22:01N 35°27' E 139°42'5 9.0
2017-May-28 21:30N 35°24' E 139°46'611.0
2017-May-28 21:00N 35°18' E 139°45'611.5
2017-May-28 20:30N 35°13' E 139°47'3 5.4
2017-May-28 20:00N 35°10' E 139°47'510.0
2017-May-28 19:30N 35°15' E 139°45'713.7
2017-May-28 19:00N 35°21' E 139°42'612.6
2017-May-28 18:31N 35°27' E 139°40'  
2017-May-26 12:44N 35°27' E 139°40'0 2.1
2017-May-26 12:30N 35°27' E 139°40'612.6
2017-May-26 12:01N 35°21' E 139°41'714.5
2017-May-26 11:30N 35°14' E 139°45'2 4.4
2017-May-26 11:00N 35°16' E 139°45'612.8
2017-May-26 10:30N 35°22' E 139°42'3 6.9
2017-May-26 10:00N 35°25' E 139°45'4 7.7
2017-May-26 09:30N 35°27' E 139°41'  
2017-May-24 04:11N 35°27' E 139°40'0 0.0
2017-May-24 04:00N 35°27' E 139°40'0 0.0
2017-May-24 03:30N 35°27' E 139°40'0 0.0
2017-May-24 03:00N 35°27' E 139°40'0 0.0
2017-May-24 02:30N 35°27' E 139°40'0 0.0
2017-May-24 02:00N 35°27' E 139°40'0 0.0
2017-May-24 01:30N 35°27' E 139°40'0 0.0
2017-May-24 01:00N 35°27' E 139°40'0 0.0
2017-May-24 00:30N 35°27' E 139°40'0 0.0
2017-May-24 00:00N 35°27' E 139°40'0 0.0
2017-May-23 23:30N 35°27' E 139°40'0 0.0
2017-May-23 23:00N 35°27' E 139°40'2 4.9
2017-May-23 22:31N 35°25' E 139°42'714.1
2017-May-23 21:59N 35°18' E 139°43'612.0
2017-May-23 21:30N 35°13' E 139°46'612.3
2017-May-23 21:01N 35°18' E 139°44'713.3
2017-May-23 20:31N 35°25' E 139°44'1 3.0
2017-May-23 20:00N 35°25' E 139°46'4 8.3
2017-May-23 19:30N 35°27' E 139°41'1 2.8
2017-May-23 19:00N 35°27' E 139°40'0 0.0
2017-May-23 18:30N 35°27' E 139°40'0 0.0
2017-May-23 18:00N 35°27' E 139°40'0 0.0
2017-May-23 17:30N 35°27' E 139°40'0 0.0
2017-May-23 17:00N 35°27' E 139°40'0 0.0
2017-May-23 16:30N 35°27' E 139°40'0 0.0
2017-May-23 16:00N 35°27' E 139°40'0 0.0
2017-May-23 15:30N 35°27' E 139°40'0 0.0
2017-May-23 15:00N 35°27' E 139°40'0 0.0
2017-May-23 14:00N 35°27' E 139°40'0 0.0
2017-May-23 13:30N 35°27' E 139°40'0 0.0
2017-May-23 13:00N 35°27' E 139°40'0 0.0
2017-May-23 12:30N 35°27' E 139°40'0 0.0
2017-May-23 12:00N 35°27' E 139°40'0 0.0
2017-May-23 11:30N 35°27' E 139°40'0 0.0
2017-May-23 11:00N 35°27' E 139°40'0 0.0
2017-May-23 10:30N 35°27' E 139°40'0 0.0
2017-May-23 10:00N 35°27' E 139°40'0 0.0
2017-May-23 09:30N 35°27' E 139°40'0 0.0
2017-May-23 09:00N 35°27' E 139°40'0 0.0
2017-May-23 08:30N 35°27' E 139°40'0 0.0
2017-May-23 08:00N 35°27' E 139°40'0 0.0
2017-May-23 07:30N 35°27' E 139°40'4 7.6
2017-May-23 07:01N 35°28' E 139°44'2 4.2
2017-May-23 06:30N 35°30' E 139°44'0 0.9
2017-May-23 06:00N 35°30' E 139°44'510.1
2017-May-23 05:31N 35°27' E 139°40'0 0.0
2017-May-23 05:00N 35°27' E 139°40'0 0.0
2017-May-23 04:30N 35°27' E 139°40'0 0.0
2017-May-23 04:00N 35°27' E 139°40'0 0.0
2017-May-23 03:30N 35°27' E 139°40'0 0.0
2017-May-23 03:00N 35°27' E 139°40'0 0.0
2017-May-23 02:30N 35°27' E 139°40'0 0.0
2017-May-23 02:00N 35°27' E 139°40'0 0.0
2017-May-23 01:30N 35°27' E 139°40'0 0.0
2017-May-23 01:00N 35°27' E 139°40'0 0.5
2017-May-23 00:30N 35°27' E 139°40'5 9.9
2017-May-23 00:00N 35°31' E 139°44'1 1.2
2017-May-22 23:31N 35°30' E 139°44'0 0.5
2017-May-22 23:00N 35°30' E 139°44'2 4.7
2017-May-22 22:30N 35°28' E 139°43'1 1.0
2017-May-22 22:00N 35°27' E 139°42'2 4.6
2017-May-22 21:30N 35°27' E 139°40'0 0.0
2017-May-22 21:00N 35°27' E 139°40'0 0.0
2017-May-22 20:30N 35°27' E 139°40'0 0.0
2017-May-21 02:54N 35°27' E 139°40'1 3.0
2017-May-21 02:30N 35°27' E 139°41'815.1
2017-May-21 02:00N 35°19' E 139°42'814.9
2017-May-21 01:29N 35°12' E 139°46'5 9.7
2017-May-21 01:00N 35°17' E 139°45'5 9.6
2017-May-21 00:30N 35°21' E 139°42'5 9.2
2017-May-21 00:00N 35°25' E 139°45'4 7.8
2017-May-20 23:29N 35°24' E 139°49'2 3.7
2017-May-20 23:00N 35°23' E 139°51'1 1.1
2017-May-20 22:23N 35°22' E 139°52'4 9.7
2017-May-20 22:00N 35°24' E 139°48'713.5
2017-May-20 21:31N 35°27' E 139°41'1 2.6
2017-May-20 21:00N 35°27' E 139°39'1 1.4
2017-May-20 20:30N 35°27' E 139°40'0 0.0
2017-May-20 20:00N 35°27' E 139°40'0 0.0
2017-May-20 19:30N 35°27' E 139°40'0 0.0
2017-May-20 19:00N 35°27' E 139°40'0 0.0
2017-May-20 18:30N 35°27' E 139°40'0 0.0
2017-May-20 18:00N 35°27' E 139°40'0 0.0
2017-May-20 17:30N 35°27' E 139°40'0 0.0
2017-May-20 17:00N 35°27' E 139°40'0 0.0
2017-May-20 16:30N 35°27' E 139°40'0 0.0
2017-May-20 16:00N 35°27' E 139°40'0 0.0
2017-May-20 15:30N 35°27' E 139°40'0 0.0
2017-May-20 15:00N 35°27' E 139°40'0 0.0
2017-May-20 14:00N 35°27' E 139°40'0 0.0
2017-May-20 13:30N 35°27' E 139°40'0 0.0
2017-May-20 13:00N 35°27' E 139°40'0 0.0
2017-May-20 12:30N 35°27' E 139°40'0 0.0
2017-May-20 12:00N 35°27' E 139°40'0 0.0
2017-May-20 11:30N 35°27' E 139°40'0 0.0
2017-May-20 11:00N 35°27' E 139°40'0 0.0
2017-May-20 10:30N 35°27' E 139°40'0 0.0
2017-May-20 10:00N 35°27' E 139°40'0 0.0
2017-May-20 09:30N 35°27' E 139°40'0 0.0
2017-May-20 09:00N 35°27' E 139°40'0 0.0
2017-May-20 08:30N 35°27' E 139°40'1 2.8
2017-May-20 08:01N 35°27' E 139°41'510.2
2017-May-20 07:31N 35°23' E 139°46'611.0
2017-May-20 06:59N 35°17' E 139°45'3 2.4
2017-May-20 05:46N 35°14' E 139°46'413.9
2017-May-20 05:30N 35°18' E 139°44'713.5
2017-May-20 05:00N 35°24' E 139°42'  

Dump ship's entire track history